فيلادلفيا، بنسيلفانيا, PA

01:37 PM EST on وèلهبر 21, 2014 (GMT -0500)
Philadelphia | Change Station
CLOSE
Current Station
Personal Weather Stations
Location: Philadelphia, PA
Elevation: 167 ft
Nearby Weather Stations

Elev 167 ft 40.13 °N, 75.00 °W | Updated 57 minutes ago

Clear
صافية
35.6 °F
Feels Like 31 °F
N
5.8
ريح متغير ريح from غرب

هذا اليوم
High -- | Low -- °F
--% Chance of Precip.
Yesterday
High -- | Low -- °F
Precip. -- في
6:52 AM 4:39 PM
الهلال الأخير, 1% visible
الضغط 30.38 في
وضوح الرؤية 10.0 أميال
سحابات صافية
رياح باردة 31 °F
نقطة الندى 13 °F
الرطوبة 39%
Rainfall 0.00 في
عمق الثلج Not available.
الأشعة فوق البنفسجية 3 out of 12
Pollen .10 out of 12
جودة الهواء Not available.
Flu Activity Not available.
METAR KPNE 211754Z AUTO 28017G22KT 10SM CLR 03/M14 A3037 RMK AO2 SLP285 T00281139 10028 21022 51004 TSNO

More Conditions Fewer Conditions

الضغط 30.38 في
وضوح الرؤية 10.0 أميال
سحابات صافية
رياح باردة 31 °F
نقطة الندى 13 °F
الرطوبة 39%
Rainfall 0.00 في
عمق الثلج Not available.
الأشعة فوق البنفسجية 3 out of 12
Pollen .10 out of 12
جودة الهواء Not available.
Flu Activity Not available.
METAR KPNE 211754Z AUTO 28017G22KT 10SM CLR 03/M14 A3037 RMK AO2 SLP285 T00281139 10028 21022 51004 TSNO

More Conditions Fewer Conditions

10-Day Weather Forecast

Almanac

علم الفلك

Nov. 21, 2014 Rise Set
Actual Time
Civil Twilight
Nautical Twilight
Astronomical Twilight
قمر
Length Of Visible Light
طول الیوم
Tomorrow will be .
, % of the Moon is Illuminated

Today's Extremes

State Highs State Lows

Community

WunderPhotos

Upload Photos

1,772,693 photos uploaded!

WunderBlogs® & News

Nearby

جودة الهواء

  جودة الهواء AQ Index Pollutant
Not available.

عمق الثلج

Station Depth Elevation

Earthquake Activity

City Distance Mag. Time & Date
Minimum magnitude displayed is 2.5.

Coastal Water Temperatures

مكان درجات الحرارة

Nearby Weather Stations